Time;durP1;ratioP1;P1;durP2;ratioP2;P2;SDS_P1;SDS_P2;PMS_P1;PMS_P2;Temp;Humidity;BMP_temperature;BMP_pressure;BME280_temperature;BME280_humidity;BME280_pressure;Samples;Min_cycle;Max_cycle;Signal;HPM_P1;HPM_P2
2022/12/14 00:01:14;;;;;;;75.65;59.03;;;8.70;99.90;;;;;;4976408;28;20035;-62
2022/12/14 00:03:40;;;;;;;66.25;53.17;;;8.70;99.90;;;;;;4976552;28;20023;-63
2022/12/14 00:06:34;;;;;;;74.78;57.70;;;8.70;99.90;;;;;;4976491;28;20051;-63
2022/12/14 00:09:02;;;;;;;80.03;61.00;;;8.70;99.90;;;;;;4975833;28;20216;-63
2022/12/14 00:11:28;;;;;;;115.35;75.32;;;8.60;99.90;;;;;;4976564;28;20073;-63
2022/12/14 00:14:00;;;;;;;72.55;58.60;;;8.50;99.90;;;;;;4974546;28;20031;-63
2022/12/14 00:16:29;;;;;;;78.80;59.75;;;8.50;99.90;;;;;;4976326;28;20038;-63
2022/12/14 00:18:56;;;;;;;69.22;54.13;;;8.50;99.90;;;;;;4976094;28;20396;-63
2022/12/14 00:21:23;;;;;;;69.30;54.75;;;8.50;99.90;;;;;;4976092;28;20035;-63
2022/12/14 00:23:50;;;;;;;76.10;57.72;;;8.50;99.90;;;;;;4976042;28;20031;-63
2022/12/14 00:26:19;;;;;;;74.03;53.78;;;8.40;99.90;;;;;;4976068;28;20121;-63
2022/12/14 00:28:47;;;;;;;59.15;45.13;;;8.40;99.90;;;;;;4978262;28;20121;-63
2022/12/14 00:31:13;;;;;;;62.47;49.05;;;8.50;99.90;;;;;;4975888;28;20055;-63
2022/12/14 00:33:39;;;;;;;48.17;40.40;;;8.50;99.90;;;;;;4975963;28;20093;-63
2022/12/14 00:36:07;;;;;;;46.05;37.47;;;8.60;99.90;;;;;;4976211;28;20495;-64
2022/12/14 00:38:33;;;;;;;57.63;48.28;;;8.60;99.90;;;;;;4975754;28;20018;-63
2022/12/14 00:40:59;;;;;;;68.05;50.83;;;8.50;99.90;;;;;;4975841;28;20030;-63
2022/12/14 00:43:25;;;;;;;59.90;48.70;;;8.50;99.90;;;;;;4975325;28;20388;-63
2022/12/14 00:45:51;;;;;;;75.50;54.03;;;8.50;99.90;;;;;;4975608;28;20510;-63
2022/12/14 00:48:19;;;;;;;88.32;59.65;;;8.40;99.90;;;;;;4975591;28;20035;-63
2022/12/14 00:50:46;;;;;;;76.63;53.45;;;8.40;99.90;;;;;;4975650;28;20070;-63
2022/12/14 00:53:11;;;;;;;81.10;50.17;;;8.40;99.90;;;;;;4975634;28;20439;-63
2022/12/14 00:55:41;;;;;;;66.75;45.92;;;8.50;99.90;;;;;;4975811;28;20023;-63
2022/12/14 00:58:09;;;;;;;50.00;38.25;;;8.60;99.90;;;;;;4975092;28;20030;-63
2022/12/14 01:00:34;;;;;;;47.55;36.67;;;8.60;99.90;;;;;;4975358;28;20039;-63
2022/12/14 01:03:01;;;;;;;60.25;43.03;;;8.80;99.90;;;;;;4975428;28;20101;-64
2022/12/14 01:05:27;;;;;;;60.97;38.90;;;8.60;99.90;;;;;;4975397;28;20030;-64
2022/12/14 01:07:52;;;;;;;56.53;39.17;;;8.60;99.90;;;;;;4975826;28;20027;-64
2022/12/14 01:10:18;;;;;;;53.88;38.97;;;8.60;99.90;;;;;;4975100;28;20034;-63
2022/12/14 01:12:44;;;;;;;63.75;40.83;;;8.70;99.90;;;;;;4975093;28;20043;-63
2022/12/14 01:15:10;;;;;;;50.65;37.13;;;8.80;99.90;;;;;;4975176;28;20492;-64
2022/12/14 01:17:35;;;;;;;52.88;36.95;;;8.80;99.90;;;;;;4975336;28;20027;-63
2022/12/14 01:20:03;;;;;;;61.78;39.35;;;8.80;99.90;;;;;;4975084;28;20066;-64
2022/12/14 01:22:29;;;;;;;51.42;36.97;;;8.70;99.90;;;;;;4975371;28;20034;-64
2022/12/14 01:24:54;;;;;;;58.72;38.75;;;8.80;99.90;;;;;;4974644;28;20058;-63
2022/12/14 01:27:20;;;;;;;46.83;35.75;;;8.80;99.90;;;;;;4977082;28;20541;-64
2022/12/14 01:29:46;;;;;;;50.35;37.85;;;8.90;99.90;;;;;;4975348;28;20038;-63
2022/12/14 01:32:12;;;;;;;52.08;37.58;;;8.90;99.90;;;;;;4974800;28;20041;-63
2022/12/14 01:34:38;;;;;;;55.35;37.95;;;8.90;99.90;;;;;;4974662;28;20054;-63
2022/12/14 01:37:04;;;;;;;55.15;38.03;;;9.00;99.90;;;;;;4975150;28;20059;-63
2022/12/14 01:39:30;;;;;;;52.15;36.92;;;9.00;99.90;;;;;;4973228;28;20443;-63
2022/12/14 01:41:56;;;;;;;45.40;31.17;;;8.90;99.90;;;;;;4974356;28;20011;-63
2022/12/14 01:44:21;;;;;;;43.58;34.50;;;9.20;99.90;;;;;;4974657;28;20038;-64
2022/12/14 01:46:58;;;;;;;44.78;33.50;;;9.20;99.90;;;;;;4974568;28;20399;-64
2022/12/14 01:49:41;;;;;;;42.22;31.77;;;9.30;99.90;;;;;;4974444;28;20019;-63
2022/12/14 01:52:18;;;;;;;44.58;33.97;;;9.30;99.90;;;;;;4974399;28;20450;-63
2022/12/14 01:55:10;;;;;;;41.35;31.80;;;9.20;99.90;;;;;;4974343;28;20022;-63
2022/12/14 01:57:47;;;;;;;37.30;30.45;;;9.20;99.90;;;;;;4974902;28;20039;-64
2022/12/14 02:00:14;;;;;;;44.80;32.47;;;9.20;99.90;;;;;;4974279;28;20043;-63
2022/12/14 02:02:46;;;;;;;56.25;37.00;;;9.10;99.90;;;;;;4974109;28;20035;-64
2022/12/14 02:05:13;;;;;;;54.78;35.15;;;8.90;99.90;;;;;;4974301;28;20027;-63
2022/12/14 02:07:41;;;;;;;51.55;35.72;;;8.90;99.90;;;;;;4974350;28;20543;-64
2022/12/14 02:10:08;;;;;;;53.28;36.03;;;9.10;99.90;;;;;;4973793;28;20046;-63
2022/12/14 02:12:41;;;;;;;50.28;37.38;;;9.10;99.90;;;;;;4972770;28;20066;-64
2022/12/14 02:15:07;;;;;;;60.50;40.40;;;8.90;99.90;;;;;;4974356;28;20419;-63
2022/12/14 02:17:33;;;;;;;47.38;35.25;;;8.70;99.90;;;;;;4974497;28;20650;-63
2022/12/14 02:20:01;;;;;;;61.28;40.40;;;8.70;99.90;;;;;;4973871;28;20030;-63
2022/12/14 02:22:54;;;;;;;46.53;35.08;;;8.90;99.90;;;;;;4973956;28;20031;-64
2022/12/14 02:25:50;;;;;;;41.15;34.47;;;9.10;99.90;;;;;;4973368;28;20054;-64
2022/12/14 02:28:36;;;;;;;51.72;38.55;;;9.10;99.90;;;;;;4976577;28;20502;-63
2022/12/14 02:31:45;;;;;;;51.10;36.72;;;9.30;99.90;;;;;;4973719;28;20049;-63
2022/12/14 02:34:20;;;;;;;55.45;38.75;;;9.30;99.90;;;;;;4972787;28;20074;-64
2022/12/14 02:36:59;;;;;;;43.65;33.38;;;9.20;99.90;;;;;;4973643;28;20041;-64
2022/12/14 02:39:39;;;;;;;48.70;35.70;;;9.00;99.90;;;;;;4973693;28;20031;-64
2022/12/14 02:42:15;;;;;;;62.88;41.47;;;9.10;99.90;;;;;;4973761;28;20023;-64
2022/12/14 02:44:59;;;;;;;29.67;26.02;;;9.20;99.90;;;;;;4973622;28;20022;-63
2022/12/14 02:47:53;;;;;;;40.70;28.02;;;9.00;99.90;;;;;;4973665;28;20029;-63
2022/12/14 02:50:42;;;;;;;63.45;36.63;;;9.00;99.90;;;;;;4971641;28;20038;-63
2022/12/14 02:53:24;;;;;;;39.13;27.65;;;9.00;99.90;;;;;;4973090;28;20027;-63
2022/12/14 02:55:52;;;;;;;54.08;33.80;;;9.00;99.90;;;;;;4973603;28;20023;-63
2022/12/14 02:58:30;;;;;;;59.70;38.88;;;9.00;99.90;;;;;;4973677;28;20085;-63
2022/12/14 03:00:56;;;;;;;61.92;38.35;;;8.90;99.90;;;;;;4972573;28;20039;-63
2022/12/14 03:03:22;;;;;;;58.40;35.67;;;8.90;99.90;;;;;;4973404;28;20042;-63
2022/12/14 03:05:59;;;;;;;88.78;45.08;;;9.10;99.90;;;;;;4973360;28;20026;-63
2022/12/14 03:08:28;;;;;;;70.63;40.83;;;9.30;99.90;;;;;;4973107;28;20027;-63
2022/12/14 03:11:01;;;;;;;57.78;37.10;;;9.30;99.90;;;;;;4973337;28;20038;-63
2022/12/14 03:13:57;;;;;;;46.37;32.30;;;9.40;99.90;;;;;;4973699;28;20030;-63
2022/12/14 03:16:36;;;;;;;59.97;37.78;;;9.50;99.90;;;;;;4973362;28;20294;-62
2022/12/14 03:19:21;;;;;;;56.55;33.83;;;9.50;99.90;;;;;;4973106;28;20035;-63
2022/12/14 03:21:53;;;;;;;32.60;25.65;;;9.50;99.90;;;;;;4973047;28;20026;-63
2022/12/14 03:24:26;;;;;;;52.63;33.67;;;9.60;99.90;;;;;;4972991;28;20042;-62
2022/12/14 03:26:59;;;;;;;64.65;35.72;;;9.70;99.90;;;;;;4973004;28;20137;-63
2022/12/14 03:29:30;;;;;;;50.72;33.28;;;9.80;99.90;;;;;;4975971;28;20523;-63
2022/12/14 03:32:04;;;;;;;69.97;37.80;;;9.80;99.90;;;;;;4973526;28;20484;-63
2022/12/14 03:34:31;;;;;;;;;;;9.70;99.90;;;;;;4973430;28;20030;-63
2022/12/14 03:37:08;;;;;;;57.97;33.47;;;9.70;99.90;;;;;;4972766;28;19906;-63
2022/12/14 03:39:37;;;;;;;45.17;32.80;;;9.80;99.90;;;;;;4973064;28;20039;-63
2022/12/14 03:42:20;;;;;;;32.65;26.27;;;9.80;99.90;;;;;;4973214;28;20065;-63
2022/12/14 03:45:18;;;;;;;39.88;27.60;;;9.90;99.90;;;;;;4973036;28;20510;-63
2022/12/14 03:48:30;;;;;;;51.60;31.67;;;9.90;99.90;;;;;;4970088;28;20448;-63
2022/12/14 03:51:14;;;;;;;59.88;34.70;;;9.80;99.90;;;;;;4913373;29;20028;-64
2022/12/14 03:53:47;;;;;;;77.93;39.25;;;9.70;99.90;;;;;;4913732;29;20116;-64
2022/12/14 03:56:21;;;;;;;55.63;32.78;;;9.70;99.90;;;;;;4913163;29;20032;-64
2022/12/14 03:58:58;;;;;;;38.72;26.40;;;9.70;99.90;;;;;;4913662;29;20036;-63
2022/12/14 04:02:00;;;;;;;80.07;39.42;;;9.70;99.90;;;;;;4913315;29;20040;-64
2022/12/14 04:04:33;;;;;;;32.55;25.27;;;9.60;99.90;;;;;;4913083;28;20032;-63
2022/12/14 04:07:33;;;;;;;73.55;36.78;;;9.70;99.90;;;;;;4912886;29;20103;-63
2022/12/14 04:18:55;;;;;;;89.95;40.00;;;9.60;99.90;;;;;;4913616;29;20055;-63
2022/12/14 04:21:27;;;;;;;65.40;34.17;;;9.70;99.90;;;;;;4916276;29;20059;-63
2022/12/14 04:26:54;;;;;;;87.03;43.05;;;10.00;99.90;;;;;;4976326;28;20494;-63
2022/12/14 04:32:15;;;;;;;78.35;41.17;;;10.00;99.90;;;;;;4975947;28;20054;-63
2022/12/14 04:34:44;;;;;;;75.50;38.45;;;9.90;99.90;;;;;;4975944;28;20447;-63
2022/12/14 04:37:15;;;;;;;44.78;28.88;;;9.90;99.90;;;;;;4975862;28;20058;-63
2022/12/14 04:39:53;;;;;;;35.10;25.00;;;9.80;99.90;;;;;;4975842;28;20467;-63
2022/12/14 04:42:27;;;;;;;38.10;26.67;;;9.80;99.90;;;;;;4975837;28;20034;-63
2022/12/14 04:44:57;;;;;;;87.18;42.80;;;9.80;99.90;;;;;;4975755;28;20073;-63
2022/12/14 04:47:29;;;;;;;57.40;34.80;;;9.70;99.90;;;;;;4975699;28;20031;-63
2022/12/14 04:50:09;;;;;;;74.25;38.90;;;9.80;99.90;;;;;;4975504;28;20427;-64
2022/12/14 04:52:38;;;;;;;50.00;32.72;;;9.80;99.90;;;;;;4975589;28;20102;-63
2022/12/14 04:55:34;;;;;;;48.65;31.27;;;9.90;99.90;;;;;;4975608;28;20041;-63
2022/12/14 04:58:15;;;;;;;52.90;30.10;;;9.90;99.90;;;;;;4972831;28;20543;-63
2022/12/14 05:01:08;;;;;;;41.42;25.83;;;9.80;99.90;;;;;;4975641;28;20045;-63
2022/12/14 05:03:37;;;;;;;36.28;25.42;;;9.80;99.90;;;;;;4964400;28;20069;-63
2022/12/14 05:06:17;;;;;;;92.07;47.38;;;9.60;99.90;;;;;;4975274;28;20495;-63
2022/12/14 05:08:49;;;;;;;117.50;57.22;;;9.90;99.90;;;;;;4975315;28;20023;-64
2022/12/14 05:11:25;;;;;;;94.38;51.70;;;9.80;99.90;;;;;;4975159;28;20038;-63
2022/12/14 05:13:51;;;;;;;61.13;40.92;;;9.40;99.90;;;;;;4975493;28;20066;-63
2022/12/14 05:16:19;;;;;;;120.57;66.47;;;9.30;99.90;;;;;;4975055;28;20035;-63
2022/12/14 05:18:45;;;;;;;82.38;37.42;;;9.40;99.90;;;;;;4974960;28;20052;-63
2022/12/14 05:21:45;;;;;;;339.60;38.65;;;9.60;99.90;;;;;;4975054;28;20042;-63
2022/12/14 05:24:02;;;;;;;115.07;36.97;;;9.50;99.90;;;;;;4974144;28;20035;-63
2022/12/14 05:26:31;;;;;;;112.10;37.05;;;9.30;99.90;;;;;;4975045;28;20046;-63
2022/12/14 05:28:56;;;;;;;114.82;28.85;;;9.30;99.90;;;;;;4977552;28;20034;-63
2022/12/14 05:31:23;;;;;;;61.00;25.80;;;9.60;99.90;;;;;;4974783;28;20030;-63
2022/12/14 05:33:49;;;;;;;55.75;28.52;;;9.70;99.90;;;;;;4974524;28;20051;-63
2022/12/14 05:36:14;;;;;;;93.57;25.95;;;10.00;99.90;;;;;;4974807;28;20436;-63
2022/12/14 05:38:40;;;;;;;69.40;28.27;;;10.10;99.90;;;;;;4974617;28;20038;-63
2022/12/14 05:41:06;;;;;;;52.83;25.27;;;10.10;99.90;;;;;;4974945;28;20058;-64
2022/12/14 05:43:31;;;;;;;54.78;24.95;;;9.80;99.90;;;;;;4974722;28;20030;-63
2022/12/14 05:45:58;;;;;;;24.77;16.27;;;10.20;99.90;;;;;;4974509;28;20098;-63
2022/12/14 05:48:24;;;;;;;58.15;25.77;;;10.00;99.90;;;;;;4974708;28;20380;-63
2022/12/14 05:50:50;;;;;;;116.78;40.42;;;9.70;99.90;;;;;;4974380;28;20034;-62
2022/12/14 05:53:17;;;;;;;115.55;31.48;;;9.90;99.90;;;;;;4974403;28;20031;-63
2022/12/14 05:55:47;;;;;;;159.77;38.35;;;9.60;99.90;;;;;;4974482;28;20395;-64
2022/12/14 05:58:13;;;;;;;81.60;35.55;;;9.80;99.90;;;;;;4974033;28;20066;-64
2022/12/14 06:00:39;;;;;;;80.15;33.75;;;9.90;99.90;;;;;;4974590;28;20058;-63
2022/12/14 06:03:05;;;;;;;85.10;33.90;;;10.00;99.90;;;;;;4973865;28;20530;-63
2022/12/14 06:05:30;;;;;;;64.32;24.13;;;10.10;99.90;;;;;;4974275;28;20492;-64
2022/12/14 06:07:56;;;;;;;45.28;21.92;;;10.10;99.90;;;;;;4973987;28;20038;-64
2022/12/14 06:10:22;;;;;;;63.75;24.13;;;9.90;99.90;;;;;;4973982;28;20035;-65
2022/12/14 06:12:48;;;;;;;97.20;22.55;;;9.90;99.90;;;;;;4973704;28;20030;-64
2022/12/14 06:15:14;;;;;;;89.13;23.63;;;9.90;99.90;;;;;;4973667;28;20033;-64
2022/12/14 06:17:43;;;;;;;63.60;21.23;;;10.20;99.90;;;;;;4973980;28;20388;-63
2022/12/14 06:20:10;;;;;;;44.42;17.30;;;9.90;99.90;;;;;;4972534;28;20027;-64
2022/12/14 06:22:36;;;;;;;65.88;21.05;;;10.40;99.90;;;;;;4973762;28;20484;-64
2022/12/14 06:25:02;;;;;;;65.65;21.45;;;10.50;99.90;;;;;;4974140;28;20058;-64
2022/12/14 06:27:28;;;;;;;69.25;21.45;;;10.40;99.90;;;;;;4976225;28;20401;-64
2022/12/14 06:29:53;;;;;;;125.57;30.55;;;10.80;99.90;;;;;;4973414;28;20022;-64
2022/12/14 06:32:19;;;;;;;190.52;30.17;;;10.60;99.90;;;;;;4974009;28;20030;-64
2022/12/14 06:34:45;;;;;;;104.03;28.65;;;10.50;99.90;;;;;;4973159;28;20045;-64
2022/12/14 06:37:11;;;;;;;90.15;34.08;;;10.70;99.90;;;;;;4973653;28;20035;-64
2022/12/14 06:39:37;;;;;;;97.35;28.98;;;10.60;99.90;;;;;;4973615;28;20039;-64
2022/12/14 06:42:04;;;;;;;63.75;23.48;;;10.60;99.90;;;;;;4973546;28;20023;-64
2022/12/14 06:44:30;;;;;;;70.53;20.52;;;10.30;99.90;;;;;;4973899;28;20373;-64
2022/12/14 06:46:56;;;;;;;71.30;20.30;;;10.20;99.90;;;;;;4973245;28;20053;-64
2022/12/14 06:49:22;;;;;;;138.73;25.02;;;10.60;99.90;;;;;;4973455;28;20031;-64
2022/12/14 06:51:48;;;;;;;74.30;21.35;;;10.80;99.90;;;;;;4972205;28;20117;-64
2022/12/14 06:54:15;;;;;;;54.40;17.13;;;10.90;99.90;;;;;;4973314;28;20038;-64
2022/12/14 06:56:43;;;;;;;107.45;21.90;;;11.00;99.90;;;;;;4973575;28;20069;-64
2022/12/14 06:59:09;;;;;;;97.35;27.17;;;11.10;99.90;;;;;;4973215;28;20518;-64
2022/12/14 07:01:36;;;;;;;34.17;15.50;;;10.70;99.90;;;;;;4973390;28;20506;-64
2022/12/14 07:04:02;;;;;;;74.63;18.85;;;10.50;99.90;;;;;;4973246;28;20442;-64
2022/12/14 07:06:32;;;;;;;58.00;20.58;;;10.80;99.90;;;;;;4973306;28;20019;-64
2022/12/14 07:08:59;;;;;;;37.17;13.30;;;10.90;99.90;;;;;;4973385;28;20026;-64
2022/12/14 07:11:26;;;;;;;38.60;18.85;;;10.80;99.90;;;;;;4973553;28;20499;-64
2022/12/14 07:13:53;;;;;;;47.85;19.90;;;10.70;99.90;;;;;;4972883;28;20069;-64
2022/12/14 07:16:22;;;;;;;49.90;20.98;;;10.40;99.90;;;;;;4973289;28;20027;-64
2022/12/14 07:18:48;;;;;;;65.72;21.30;;;10.50;99.90;;;;;;4973267;28;20030;-64
2022/12/14 07:21:15;;;;;;;64.80;20.52;;;10.50;99.90;;;;;;4973164;28;20043;-64
2022/12/14 07:23:43;;;;;;;86.97;23.70;;;10.70;99.90;;;;;;4973542;28;20177;-63
2022/12/14 07:26:15;;;;;;;65.75;20.73;;;10.80;99.90;;;;;;4972706;28;20051;-64
2022/12/14 07:28:41;;;;;;;57.85;22.58;;;10.80;99.90;;;;;;4975236;28;20034;-64
2022/12/14 07:31:12;;;;;;;65.68;22.00;;;10.70;99.90;;;;;;4973126;28;20502;-64
2022/12/14 07:33:38;;;;;;;48.65;18.13;;;11.10;99.90;;;;;;4973280;28;20038;-63
2022/12/14 07:36:07;;;;;;;61.78;20.92;;;11.30;99.90;;;;;;4972810;28;20491;-62
2022/12/14 07:38:34;;;;;;;43.28;18.90;;;11.30;99.90;;;;;;4973042;28;20035;-64
2022/12/14 07:41:08;;;;;;;31.30;17.00;;;11.20;99.90;;;;;;4973012;28;20466;-62
2022/12/14 07:43:38;;;;;;;60.72;19.13;;;11.10;99.90;;;;;;4972562;28;20592;-63
2022/12/14 07:46:06;;;;;;;43.72;28.92;;;10.90;99.90;;;;;;4973513;28;20475;-62
2022/12/14 07:48:33;;;;;;;102.28;46.53;;;10.90;99.90;;;;;;4976912;28;20069;-62
2022/12/14 07:51:08;;;;;;;34.00;21.40;;;10.70;99.90;;;;;;4976631;28;20027;-62
2022/12/14 07:53:34;;;;;;;71.78;42.63;;;11.10;99.90;;;;;;4976497;28;20031;-63
2022/12/14 07:56:11;;;;;;;47.05;25.02;;;11.30;99.90;;;;;;4976392;28;20019;-64
2022/12/14 07:58:37;;;;;;;57.15;28.45;;;11.40;99.90;;;;;;4975948;28;20027;-62
2022/12/14 08:01:14;;;;;;;51.92;20.95;;;11.40;99.90;;;;;;4976375;28;20085;-63
2022/12/14 08:03:41;;;;;;;44.38;23.23;;;11.50;99.90;;;;;;4976231;28;20444;-64
2022/12/14 08:06:08;;;;;;;48.05;23.63;;;11.20;99.90;;;;;;4976271;28;20084;-63
2022/12/14 08:08:34;;;;;;;101.82;31.10;;;11.30;99.90;;;;;;4976143;28;20073;-63
2022/12/14 08:11:00;;;;;;;60.38;24.15;;;11.40;99.90;;;;;;4976575;28;20492;-62
2022/12/14 08:13:26;;;;;;;41.08;17.67;;;11.60;99.90;;;;;;4975757;28;20387;-62
2022/12/14 08:15:52;;;;;;;50.42;24.98;;;11.80;99.90;;;;;;4976063;28;20582;-62
2022/12/14 08:18:18;;;;;;;40.42;19.45;;;11.90;99.90;;;;;;4976492;28;20065;-63
2022/12/14 08:20:48;;;;;;;39.42;18.45;;;12.00;99.90;;;;;;4975978;28;20050;-62
2022/12/14 08:23:14;;;;;;;42.17;21.15;;;12.10;99.90;;;;;;4976048;28;20023;-62
2022/12/14 08:25:39;;;;;;;45.63;21.27;;;12.10;99.90;;;;;;4976148;28;20141;-63
2022/12/14 08:28:05;;;;;;;35.15;18.92;;;12.10;99.90;;;;;;4977964;28;20023;-63
2022/12/14 08:30:31;;;;;;;42.70;18.30;;;12.10;99.90;;;;;;4975414;28;20443;-64
2022/12/14 08:32:56;;;;;;;23.05;10.98;;;12.60;99.90;;;;;;4973966;28;20031;-64
2022/12/14 08:35:22;;;;;;;34.90;14.95;;;12.40;99.90;;;;;;4975733;28;20035;-64
2022/12/14 08:37:50;;;;;;;26.10;12.52;;;12.30;99.90;;;;;;4974614;28;20075;-64
2022/12/14 08:40:16;;;;;;;29.08;13.15;;;12.50;99.90;;;;;;4975688;28;20030;-63
2022/12/14 08:42:42;;;;;;;35.30;16.70;;;12.70;99.90;;;;;;4974382;28;20030;-64
2022/12/14 08:45:08;;;;;;;28.35;12.07;;;12.80;99.90;;;;;;4974396;28;20027;-64
2022/12/14 08:47:33;;;;;;;29.75;13.60;;;13.40;99.90;;;;;;4975661;28;20097;-63
2022/12/14 08:49:59;;;;;;;26.38;9.40;;;13.80;99.90;;;;;;4975707;28;20431;-63
2022/12/14 08:52:25;;;;;;;25.45;8.82;;;13.60;99.90;;;;;;4974269;28;20038;-63
2022/12/14 08:54:50;;;;;;;24.92;7.70;;;13.40;99.90;;;;;;4975527;28;20054;-63
2022/12/14 08:57:16;;;;;;;23.02;6.90;;;13.30;99.90;;;;;;4974459;28;20109;-63
2022/12/14 08:59:42;;;;;;;22.98;7.55;;;13.40;99.90;;;;;;4975337;28;20022;-63
2022/12/14 09:02:08;;;;;;;21.15;6.45;;;13.30;99.90;;;;;;4975349;28;20054;-63
2022/12/14 09:04:34;;;;;;;17.27;5.80;;;13.50;99.90;;;;;;4975160;28;20027;-64
2022/12/14 09:07:00;;;;;;;21.02;5.90;;;13.50;99.90;;;;;;4975118;28;20162;-64
2022/12/14 09:09:25;;;;;;;17.50;5.10;;;13.60;99.90;;;;;;4975230;28;20555;-63
2022/12/14 09:11:51;;;;;;;20.20;5.05;;;13.60;99.90;;;;;;4974827;28;20023;-64
2022/12/14 09:14:17;;;;;;;20.55;4.97;;;13.60;99.90;;;;;;4975535;28;20037;-63
2022/12/14 09:16:42;;;;;;;17.42;5.03;;;13.60;99.90;;;;;;4974967;28;20019;-63
2022/12/14 09:19:08;;;;;;;18.25;5.45;;;13.70;99.90;;;;;;4975155;28;20033;-65
2022/12/14 09:21:34;;;;;;;20.05;5.50;;;13.90;99.90;;;;;;4974290;28;20031;-65
2022/12/14 09:24:00;;;;;;;20.00;5.38;;;13.90;99.90;;;;;;4974299;28;20041;-63
2022/12/14 09:26:26;;;;;;;18.70;4.75;;;14.00;99.90;;;;;;4973662;28;20126;-63
2022/12/14 09:28:54;;;;;;;20.15;4.90;;;14.00;99.90;;;;;;4976441;28;20030;-63
2022/12/14 09:31:22;;;;;;;17.42;4.68;;;13.90;99.90;;;;;;4974464;28;20114;-64
2022/12/14 09:33:48;;;;;;;20.40;4.78;;;14.00;99.90;;;;;;4974818;28;20037;-64
2022/12/14 09:36:19;;;;;;;15.50;4.68;;;14.10;99.90;;;;;;4975044;28;20103;-63
2022/12/14 09:38:46;;;;;;;19.48;4.65;;;14.20;99.90;;;;;;4974293;28;20035;-63
2022/12/14 09:41:27;;;;;;;17.15;4.32;;;14.20;99.90;;;;;;4974438;28;20074;-63
2022/12/14 09:44:02;;;;;;;19.00;4.40;;;14.20;99.90;;;;;;4974470;28;20023;-64
2022/12/14 09:46:42;;;;;;;18.88;4.10;;;14.20;99.90;;;;;;4974576;28;20105;-63
2022/12/14 09:49:28;;;;;;;18.25;4.53;;;14.20;99.90;;;;;;4974579;28;20030;-63
2022/12/14 09:51:57;;;;;;;19.48;4.25;;;14.60;99.90;;;;;;4974642;28;20430;-64
2022/12/14 09:54:30;;;;;;;18.73;4.25;;;15.80;99.90;;;;;;4974232;28;20025;-64
2022/12/14 09:57:00;;;;;;;17.30;3.60;;;15.90;99.90;;;;;;4974492;28;20050;-63
2022/12/14 09:59:28;;;;;;;18.98;3.78;;;15.50;99.90;;;;;;4974301;28;20030;-63
2022/12/14 10:02:04;;;;;;;14.20;3.80;;;15.70;99.90;;;;;;4973935;28;20470;-63
2022/12/14 10:04:40;;;;;;;16.27;3.60;;;15.60;99.90;;;;;;4974304;28;20388;-63
2022/12/14 10:07:15;;;;;;;16.67;4.38;;;15.30;99.90;;;;;;4973589;28;20057;-63
2022/12/14 10:09:58;;;;;;;17.20;3.75;;;15.50;99.90;;;;;;4972458;28;20038;-64
2022/12/14 10:12:51;;;;;;;12.88;4.03;;;17.20;99.90;;;;;;4973808;28;20026;-63
2022/12/14 10:15:35;;;;;;;12.25;3.40;;;17.10;99.90;;;;;;4973846;28;20031;-65
2022/12/14 10:18:31;;;;;;;15.88;3.90;;;16.40;99.90;;;;;;4974142;28;20030;-65
2022/12/14 10:21:19;;;;;;;16.30;3.35;;;16.30;99.90;;;;;;4973920;28;20476;-65
2022/12/14 10:23:51;;;;;;;16.50;3.88;;;16.20;99.90;;;;;;4973516;28;20027;-65
2022/12/14 10:26:21;;;;;;;15.23;3.47;;;16.80;99.90;;;;;;4974191;28;20076;-65
2022/12/14 10:28:56;;;;;;;14.32;3.50;;;17.50;99.90;;;;;;4976512;28;20118;-64
2022/12/14 10:31:42;;;;;;;16.38;3.80;;;17.50;99.90;;;;;;4973919;28;20102;-65
2022/12/14 10:34:28;;;;;;;15.20;3.47;;;17.00;99.90;;;;;;4973814;28;20059;-65
2022/12/14 10:37:12;;;;;;;13.27;3.38;;;18.80;99.90;;;;;;4973485;28;20081;-65
2022/12/14 10:39:50;;;;;;;13.80;3.92;;;19.60;99.90;;;;;;4973751;28;20031;-65
2022/12/14 10:42:41;;;;;;;14.18;3.53;;;19.70;99.90;;;;;;4973773;28;20041;-65
2022/12/14 10:45:33;;;;;;;13.15;3.33;;;20.60;99.90;;;;;;4973652;28;20078;-64
2022/12/14 10:48:33;;;;;;;10.27;3.17;;;20.70;99.90;;;;;;4973628;28;20096;-65
2022/12/14 10:51:17;;;;;;;11.18;3.30;;;23.60;99.90;;;;;;4973655;28;20014;-64
2022/12/14 10:54:29;;;;;;;9.77;3.03;;;26.30;99.90;;;;;;4973213;28;20030;-65
2022/12/14 10:56:55;;;;;;;8.98;2.60;;;24.80;99.90;;;;;;4973242;28;20054;-64
2022/12/14 10:59:21;;;;;;;11.32;3.15;;;26.30;99.90;;;;;;4972495;28;20124;-64
2022/12/14 11:02:08;;;;;;;11.95;3.33;;;26.00;99.90;;;;;;4972754;28;20045;-63
2022/12/14 11:04:43;;;;;;;10.07;3.20;;;27.30;99.90;;;;;;4973176;28;20026;-63
2022/12/14 11:07:11;;;;;;;10.57;2.92;;;27.40;99.90;;;;;;4973124;28;20089;-63
2022/12/14 11:09:39;;;;;;;10.50;3.40;;;25.30;99.90;;;;;;4973404;28;20502;-62
2022/12/14 11:12:06;;;;;;;12.70;2.75;;;26.10;99.90;;;;;;4973387;28;20033;-63
2022/12/14 11:14:34;;;;;;;11.13;3.20;;;22.70;99.90;;;;;;4973351;28;20396;-63
2022/12/14 11:17:00;;;;;;;10.25;2.88;;;21.40;99.90;;;;;;4973400;28;20082;-63
2022/12/14 11:19:26;;;;;;;9.20;2.92;;;20.90;99.90;;;;;;4973289;28;20031;-63
2022/12/14 11:22:10;;;;;;;10.70;3.17;;;20.90;99.90;;;;;;4974940;28;20440;-63
2022/12/14 11:24:45;;;;;;;11.52;3.15;;;23.10;99.90;;;;;;4977597;28;20019;-63
2022/12/14 11:27:12;;;;;;;9.55;2.90;;;21.80;99.90;;;;;;4978474;28;20487;-63
2022/12/14 11:29:43;;;;;;;11.80;3.22;;;20.80;99.90;;;;;;4978267;28;20392;-63
2022/12/14 11:32:17;;;;;;;10.32;2.97;;;20.10;99.90;;;;;;4977103;28;20039;-64
2022/12/14 11:34:51;;;;;;;14.07;3.47;;;20.00;99.90;;;;;;4976618;28;20050;-61
2022/12/14 11:37:30;;;;;;;9.35;3.28;;;21.10;99.90;;;;;;4977209;28;20027;-63
2022/12/14 11:39:58;;;;;;;12.80;3.10;;;20.30;99.90;;;;;;4976225;28;20041;-64
2022/12/14 11:42:25;;;;;;;14.50;2.92;;;19.60;99.90;;;;;;4976032;28;20031;-64
2022/12/14 11:44:51;;;;;;;10.55;2.80;;;19.10;99.90;;;;;;4976117;28;20026;-63
2022/12/14 11:47:18;;;;;;;13.05;3.00;;;19.00;99.90;;;;;;4976418;28;20109;-64
2022/12/14 11:49:53;;;;;;;16.02;3.85;;;19.50;99.90;;;;;;4976711;28;20021;-64
2022/12/14 11:52:37;;;;;;;12.18;2.97;;;20.50;99.90;;;;;;4976660;28;20424;-63
2022/12/14 11:55:10;;;;;;;;;;;20.60;99.90;;;;;;4977051;28;20023;-63
2022/12/14 11:57:54;;;;;;;12.02;3.25;;;23.70;99.90;;;;;;4976598;28;19957;-64
2022/12/14 12:00:36;;;;;;;18.05;3.88;;;23.30;99.90;;;;;;4976544;28;20070;-63
2022/12/14 12:03:07;;;;;;;14.93;3.38;;;21.90;99.90;;;;;;4976767;28;20038;-64
2022/12/14 12:05:38;;;;;;;14.45;3.30;;;22.10;99.90;;;;;;4976117;28;20038;-63
2022/12/14 12:08:06;;;;;;;11.02;3.47;;;20.60;99.90;;;;;;4976609;28;20035;-63
2022/12/14 12:10:45;;;;;;;14.25;4.10;;;20.10;99.90;;;;;;4976324;28;20484;-63
2022/12/14 12:13:27;;;;;;;13.43;3.40;;;20.00;99.90;;;;;;4976781;28;20487;-62
2022/12/14 12:15:57;;;;;;;15.50;3.92;;;19.20;99.90;;;;;;4976038;28;20074;-63
2022/12/14 12:18:42;;;;;;;41.78;30.13;;;19.30;99.90;;;;;;4975979;28;20388;-63
2022/12/14 12:21:30;;;;;;;35.92;29.63;;;22.50;99.90;;;;;;4976093;28;20046;-63
2022/12/14 12:24:24;;;;;;;77.45;70.05;;;24.00;99.90;;;;;;4967948;28;20041;-63
2022/12/14 12:27:13;;;;;;;17.63;4.30;;;24.20;99.90;;;;;;4976056;28;20636;-64
2022/12/14 12:29:46;;;;;;;15.70;3.97;;;21.80;99.90;;;;;;4974824;28;20058;-63
2022/12/14 12:32:25;;;;;;;11.95;3.50;;;20.10;99.90;;;;;;4975632;28;20031;-63
2022/12/14 12:35:14;;;;;;;14.23;4.47;;;19.40;99.90;;;;;;4975711;28;20066;-63
2022/12/14 12:37:46;;;;;;;19.63;12.73;;;19.10;99.90;;;;;;4976055;28;20097;-63
2022/12/14 12:40:32;;;;;;;18.25;7.82;;;19.30;99.90;;;;;;4975789;28;20054;-62
2022/12/14 12:43:13;;;;;;;14.02;3.90;;;18.90;99.90;;;;;;4975908;28;20027;-63
2022/12/14 12:45:46;;;;;;;16.83;3.83;;;18.50;99.90;;;;;;4976098;28;20399;-63
2022/12/14 12:48:36;;;;;;;17.63;3.90;;;18.80;99.90;;;;;;4975374;28;20027;-63
2022/12/14 12:51:11;;;;;;;15.05;4.30;;;19.20;99.90;;;;;;4975722;28;20058;-63
2022/12/14 12:53:55;;;;;;;13.90;3.67;;;19.10;99.90;;;;;;4975483;28;20388;-63
2022/12/14 12:56:35;;;;;;;15.43;3.80;;;18.90;99.90;;;;;;4975572;28;20041;-62
2022/12/14 12:59:03;;;;;;;14.20;3.85;;;18.90;99.90;;;;;;4975745;28;20074;-63
2022/12/14 13:01:41;;;;;;;12.75;3.28;;;18.70;99.90;;;;;;4975416;28;20042;-63
2022/12/14 13:04:14;;;;;;;15.55;3.70;;;18.70;99.90;;;;;;4975418;28;20027;-62
2022/12/14 13:06:46;;;;;;;12.73;3.35;;;18.70;99.90;;;;;;4975769;28;20125;-63
2022/12/14 13:09:34;;;;;;;18.70;3.92;;;18.50;99.90;;;;;;4975154;28;20073;-62
2022/12/14 13:12:04;;;;;;;15.38;3.80;;;18.70;99.90;;;;;;4967160;28;20418;-63
2022/12/14 13:14:33;;;;;;;19.15;3.47;;;18.40;99.90;;;;;;4975022;28;20057;-63
2022/12/14 13:17:02;;;;;;;17.80;4.70;;;18.40;99.90;;;;;;4974594;28;20377;-62